Time;durP1;ratioP1;P1;durP2;ratioP2;P2;SDS_P1;SDS_P2;PMS_P1;PMS_P2;Temp;Humidity;BMP_temperature;BMP_pressure;BME280_temperature;BME280_humidity;BME280_pressure;Samples;Min_cycle;Max_cycle;Signal;HPM_P1;HPM_P2
2022/04/18 00:00:12;;;;;;;5.82;2.95;;;;;;;3.17;63.56;99548.00;5022985;28;20033;-77
2022/04/18 00:02:38;;;;;;;5.43;2.50;;;;;;;3.22;63.46;99547.28;5038903;28;20123;-76
2022/04/18 00:05:04;;;;;;;4.78;2.53;;;;;;;3.18;63.56;99545.47;5073338;28;20028;-76
2022/04/18 00:07:30;;;;;;;4.90;2.80;;;;;;;3.18;63.92;99544.59;5053695;28;20115;-76
2022/04/18 00:09:55;;;;;;;4.85;2.63;;;;;;;3.18;64.22;99537.78;5051952;28;20032;-76
2022/04/18 00:12:21;;;;;;;5.93;3.08;;;;;;;3.21;63.62;99534.44;5038813;28;20040;-76
2022/04/18 00:14:47;;;;;;;6.93;2.80;;;;;;;3.21;63.31;99537.00;5053659;28;20190;-76
2022/04/18 00:17:13;;;;;;;4.93;2.80;;;;;;;3.17;63.62;99530.06;5064547;28;20047;-76
2022/04/18 00:19:38;;;;;;;5.97;3.25;;;;;;;3.12;63.67;99532.53;5073010;28;20036;-79
2022/04/18 00:22:05;;;;;;;5.05;3.25;;;;;;;3.05;64.17;99534.06;5071466;28;20048;-75
2022/04/18 00:24:31;;;;;;;5.13;2.80;;;;;;;3.02;64.00;99528.88;5067062;28;20432;-76
2022/04/18 00:26:56;;;;;;;5.80;3.00;;;;;;;2.98;64.27;99514.25;5069467;28;20048;-77
2022/04/18 00:29:22;;;;;;;5.85;3.17;;;;;;;3.02;64.67;99523.75;5038022;28;20036;-76
2022/04/18 00:31:48;;;;;;;7.00;3.00;;;;;;;3.05;64.72;99522.94;5057878;28;20086;-78
2022/04/18 00:34:14;;;;;;;4.68;2.90;;;;;;;3.06;64.95;99520.41;5071658;28;20510;-77
2022/04/18 00:36:41;;;;;;;5.15;2.88;;;;;;;3.05;64.41;99518.69;5059205;28;20484;-76
2022/04/18 00:39:06;;;;;;;6.18;2.88;;;;;;;3.08;64.18;99519.59;5071013;28;20036;-77
2022/04/18 00:41:32;;;;;;;11.07;7.13;;;;;;;3.04;65.12;99518.66;5068251;28;20086;-78
2022/04/18 00:43:58;;;;;;;7.88;4.00;;;;;;;2.97;64.79;99509.94;5061361;28;20044;-76
2022/04/18 00:46:24;;;;;;;5.95;3.67;;;;;;;2.98;64.77;99509.13;5071204;28;20049;-77
2022/04/18 00:48:49;;;;;;;5.13;3.30;;;;;;;3.01;65.06;99510.88;5054730;28;20491;-77
2022/04/18 00:51:17;;;;;;;6.22;3.17;;;;;;;3.00;64.86;99502.31;5072367;28;20035;-76
2022/04/18 00:53:43;;;;;;;4.85;2.90;;;;;;;2.91;64.83;99491.00;5072496;28;20035;-75
2022/04/18 00:56:11;;;;;;;4.47;2.83;;;;;;;2.99;65.13;99494.63;5071159;28;20040;-77
2022/04/18 00:58:37;;;;;;;4.53;2.95;;;;;;;3.00;64.90;99493.78;5071235;28;20550;-76
2022/04/18 01:01:03;;;;;;;4.93;3.10;;;;;;;2.98;65.02;99487.75;5054476;28;20119;-76
2022/04/18 01:03:30;;;;;;;6.32;3.25;;;;;;;2.94;65.07;99488.53;5054200;28;20048;-76
2022/04/18 01:06:00;;;;;;;6.22;3.30;;;;;;;2.81;65.19;99479.66;5054451;28;20051;-76
2022/04/18 01:08:31;;;;;;;7.32;3.20;;;;;;;2.83;65.73;99475.44;5069637;28;20037;-75
2022/04/18 01:10:57;;;;;;;5.47;2.88;;;;;;;2.94;65.78;99484.25;5024423;28;20044;-76
2022/04/18 01:13:47;;;;;;;5.13;3.00;;;;;;;2.87;66.05;99484.94;5070848;28;20044;-76
2022/04/18 01:16:45;;;;;;;6.68;2.90;;;;;;;2.86;65.85;99480.66;5030181;28;20388;-76
2022/04/18 01:19:30;;;;;;;5.10;3.17;;;;;;;2.92;66.07;99497.84;5046384;28;20047;-76
2022/04/18 01:22:05;;;;;;;5.57;2.83;;;;;;;2.99;66.13;99492.06;5069583;28;20139;-77
2022/04/18 01:30:25;;;;;;;4.70;3.05;;;;;;;2.89;65.66;99480.72;5056015;28;20032;-74
2022/04/18 01:32:51;;;;;;;5.88;2.90;;;;;;;2.87;65.69;99487.50;5053627;28;20525;-77
2022/04/18 01:35:17;;;;;;;6.43;3.10;;;;;;;2.78;66.33;99485.56;5053818;28;20052;-74
2022/04/18 01:37:43;;;;;;;6.15;3.22;;;;;;;2.84;66.13;99490.00;5053089;28;20039;-75
2022/04/18 01:40:12;;;;;;;6.78;3.47;;;;;;;2.80;66.45;99489.06;5053804;28;20131;-77
2022/04/18 01:42:38;;;;;;;;;;;;;;;2.85;66.53;99494.28;5056260;28;20037;-77
2022/04/18 01:45:05;;;;;;;5.63;3.42;;;;;;;2.74;65.94;99476.06;5057688;28;20061;-76
2022/04/18 01:47:31;;;;;;;4.80;3.33;;;;;;;2.90;66.56;99495.25;5057852;28;20040;-76
2022/04/18 01:49:57;;;;;;;5.85;3.72;;;;;;;2.96;65.83;99490.28;5075814;28;20070;-77
2022/04/18 01:52:22;;;;;;;7.82;5.43;;;;;;;2.99;65.73;99485.22;5075389;28;20526;-77
2022/04/18 01:54:48;;;;;;;5.72;3.40;;;;;;;2.99;65.71;99482.66;5057952;28;20036;-75
2022/04/18 01:57:17;;;;;;;5.60;3.17;;;;;;;2.97;65.57;99474.06;5058014;28;20032;-77
2022/04/18 01:59:44;;;;;;;4.63;3.10;;;;;;;2.96;65.20;99476.59;5046577;28;20051;-78
2022/04/18 02:02:10;;;;;;;7.25;3.40;;;;;;;2.91;65.47;99484.19;5055247;28;20060;-78
2022/04/18 02:04:36;;;;;;;6.68;3.15;;;;;;;2.91;66.11;99476.50;5057674;28;20572;-76
2022/04/18 02:07:05;;;;;;;5.32;3.28;;;;;;;2.83;66.06;99469.44;5057614;28;20040;-77
2022/04/18 02:09:31;;;;;;;5.55;3.42;;;;;;;2.86;66.01;99475.53;5057245;28;20040;-76
2022/04/18 02:11:57;;;;;;;7.95;3.50;;;;;;;2.87;66.50;99487.50;5074160;28;20024;-76
2022/04/18 02:14:31;;;;;;;5.47;3.15;;;;;;;2.86;66.03;99477.22;5059878;28;20032;-76
2022/04/18 02:16:57;;;;;;;5.40;3.42;;;;;;;2.84;66.49;99481.41;5057008;28;20506;-77
2022/04/18 02:19:23;;;;;;;5.85;3.50;;;;;;;2.85;66.51;99484.03;5057245;28;20032;-77
2022/04/18 02:21:49;;;;;;;5.47;3.78;;;;;;;2.85;66.96;99471.22;5073497;28;20056;-77
2022/04/18 02:24:15;;;;;;;6.82;3.75;;;;;;;2.93;67.04;99469.72;5056871;28;20425;-77
2022/04/18 02:26:40;;;;;;;5.68;3.63;;;;;;;2.91;66.23;99461.13;5074052;28;20048;-77
2022/04/18 02:29:10;;;;;;;6.45;3.97;;;;;;;2.86;66.44;99461.84;5041545;28;20043;-77
2022/04/18 02:32:47;;;;;;;6.10;3.50;;;;;;;2.89;67.28;99464.50;5056939;28;20037;-77
2022/04/18 02:34:23;;;;;;;5.80;3.78;;;;;;;2.94;66.16;99458.63;5045869;28;20494;-77
2022/04/18 02:36:49;;;;;;;10.85;3.65;;;;;;;2.88;65.94;99452.50;5057379;28;20475;-77
2022/04/18 02:39:16;;;;;;;6.03;3.75;;;;;;;2.91;66.14;99447.44;5073253;28;20394;-76
2022/04/18 02:41:42;;;;;;;9.70;4.07;;;;;;;2.88;65.56;99448.22;5047016;28;20033;-75
2022/04/18 02:44:07;;;;;;;6.38;3.65;;;;;;;2.92;66.12;99450.03;5049219;28;20158;-76
2022/04/18 02:46:33;;;;;;;8.02;3.50;;;;;;;2.80;66.17;99440.38;5056543;28;20029;-76
2022/04/18 02:49:03;;;;;;;6.38;4.50;;;;;;;2.79;66.21;99445.44;5057419;28;20049;-76
2022/04/18 02:51:31;;;;;;;7.22;4.05;;;;;;;2.86;66.76;99441.34;5073359;28;20028;-75
2022/04/18 02:54:04;;;;;;;6.07;3.88;;;;;;;2.92;65.91;99462.84;5057319;28;20410;-76
2022/04/18 02:56:33;;;;;;;6.88;4.32;;;;;;;2.97;66.08;99463.81;5072994;28;20060;-76
2022/04/18 02:58:59;;;;;;;6.28;3.88;;;;;;;2.98;65.60;99464.69;5056541;28;20029;-76
2022/04/18 03:01:24;;;;;;;7.97;4.20;;;;;;;2.97;65.92;99461.25;5043584;28;20045;-76
2022/04/18 03:03:52;;;;;;;8.15;4.00;;;;;;;3.09;65.68;99477.75;5035951;28;20067;-76
2022/04/18 03:06:18;;;;;;;6.45;3.88;;;;;;;3.04;65.71;99464.84;5040543;28;20136;-75
2022/04/18 03:08:44;;;;;;;6.20;4.10;;;;;;;3.01;65.87;99465.63;5072666;28;20044;-76
2022/04/18 03:11:10;;;;;;;5.57;3.83;;;;;;;3.04;65.49;99464.84;5065557;28;20037;-75
2022/04/18 03:13:43;;;;;;;6.55;4.28;;;;;;;3.03;65.65;99463.13;5021965;28;20032;-76
2022/04/18 03:16:14;;;;;;;8.20;4.22;;;;;;;3.00;65.57;99463.88;5063317;28;20040;-76
2022/04/18 03:18:40;;;;;;;7.43;4.30;;;;;;;3.05;65.83;99477.66;5050987;28;20094;-75
2022/04/18 03:21:06;;;;;;;7.65;4.45;;;;;;;3.05;65.98;99475.09;5055723;28;20052;-76
2022/04/18 03:23:34;;;;;;;6.18;3.63;;;;;;;3.19;65.64;99489.94;5054604;28;20510;-77
2022/04/18 03:26:29;;;;;;;5.95;3.85;;;;;;;3.13;65.68;99489.81;5055771;28;20438;-76
2022/04/18 03:29:05;;;;;;;;;;;;;;;3.17;65.48;99492.47;5073033;28;20044;-76
2022/04/18 03:31:31;;;;;;;6.07;3.83;;;;;;;3.10;65.46;99476.91;5049000;28;19916;-76
2022/04/18 03:33:58;;;;;;;8.15;3.70;;;;;;;3.10;65.89;99479.47;5072673;28;20502;-76
2022/04/18 03:41:54;;;;;;;7.40;3.92;;;;;;;3.11;64.98;99482.06;5066405;28;20132;-77
2022/04/18 03:44:20;;;;;;;7.10;4.47;;;;;;;3.03;65.78;99473.34;5026940;28;20786;-76
2022/04/18 03:46:46;;;;;;;;;;;;;;;3.13;65.68;99485.53;5051683;28;20044;-77
2022/04/18 03:49:11;;;;;;;8.70;3.97;;;;;;;3.10;65.26;99469.22;5036300;28;20363;-77
2022/04/18 03:51:40;;;;;;;8.13;3.92;;;;;;;3.10;65.78;99477.78;5052522;28;20033;-77
2022/04/18 03:54:09;;;;;;;8.23;3.67;;;;;;;3.14;66.06;99476.16;5051690;28;20860;-76
2022/04/18 03:56:36;;;;;;;7.00;3.95;;;;;;;3.19;65.76;99475.41;5052635;28;20029;-76
2022/04/18 03:59:08;;;;;;;7.28;4.40;;;;;;;3.23;65.76;99472.09;5054456;28;20060;-81
2022/04/18 04:01:50;;;;;;;6.40;3.95;;;;;;;3.25;65.65;99469.56;5009678;28;20155;-77
2022/04/18 04:04:16;;;;;;;;;;;;;;;3.35;65.88;99463.81;5019682;28;20040;-78
2022/04/18 04:06:41;;;;;;;7.82;3.85;;;;;;;3.27;65.42;99473.03;5035631;28;20498;-77
2022/04/18 04:09:08;;;;;;;7.20;4.10;;;;;;;3.27;65.29;99473.03;5035792;28;20531;-78
2022/04/18 04:11:35;;;;;;;8.60;4.00;;;;;;;3.18;65.86;99450.63;5052445;28;20116;-77
2022/04/18 04:14:02;;;;;;;7.38;4.30;;;;;;;3.29;65.28;99461.09;5019558;28;20040;-77
2022/04/18 04:16:29;;;;;;;7.47;3.80;;;;;;;3.34;65.43;99458.63;5035645;28;20033;-78
2022/04/18 04:18:56;;;;;;;6.65;3.83;;;;;;;3.33;64.98;99460.34;5053309;28;20136;-77
2022/04/18 04:21:22;;;;;;;8.68;4.03;;;;;;;3.24;65.02;99447.31;5071985;28;20049;-77
2022/04/18 04:23:49;;;;;;;9.05;4.00;;;;;;;3.25;65.12;99455.06;5038980;28;20094;-77
2022/04/18 04:26:21;;;;;;;8.25;3.83;;;;;;;3.26;65.26;99459.34;5071910;28;20560;-79
2022/04/18 04:28:51;;;;;;;11.20;4.80;;;;;;;3.23;65.39;99443.03;5055591;28;20135;-80
2022/04/18 04:31:24;;;;;;;8.38;3.83;;;;;;;3.30;65.40;99452.59;5040348;28;20437;-77
2022/04/18 04:33:50;;;;;;;8.30;4.22;;;;;;;3.38;65.15;99445.06;5055008;28;20131;-75
2022/04/18 04:36:17;;;;;;;10.13;4.18;;;;;;;3.26;64.77;99443.13;5072788;28;20086;-76
2022/04/18 04:38:44;;;;;;;7.05;3.72;;;;;;;3.33;65.23;99446.66;5071662;28;20044;-78
2022/04/18 04:41:18;;;;;;;8.93;4.30;;;;;;;3.35;65.50;99445.88;5071032;28;20131;-78
2022/04/18 04:44:10;;;;;;;13.07;4.40;;;;;;;3.44;64.81;99448.63;5066996;28;20464;-78
2022/04/18 04:47:00;;;;;;;12.63;5.78;;;;;;;3.41;65.48;99440.88;5045635;28;20052;-78
2022/04/18 04:49:28;;;;;;;8.60;4.10;;;;;;;3.44;64.77;99437.50;5054997;28;20052;-78
2022/04/18 04:52:16;;;;;;;6.32;3.75;;;;;;;3.42;64.74;99432.34;5050160;28;20040;-78
2022/04/18 04:54:44;;;;;;;9.07;4.30;;;;;;;3.36;65.10;99427.09;5068913;28;20139;-77
2022/04/18 04:57:15;;;;;;;8.80;4.60;;;;;;;3.42;64.98;99421.22;5044450;28;20123;-77
2022/04/18 05:00:00;;;;;;;14.90;5.60;;;;;;;3.50;64.68;99420.53;5072607;28;20123;-77
2022/04/18 05:02:28;;;;;;;10.88;4.38;;;;;;;3.53;64.84;99425.75;5055269;28;20422;-77
2022/04/18 05:04:54;;;;;;;6.45;3.67;;;;;;;3.56;64.77;99425.78;5040678;28;20056;-78
2022/04/18 05:07:20;;;;;;;6.00;3.50;;;;;;;3.63;64.69;99420.78;5041202;28;20076;-77
2022/04/18 05:10:13;;;;;;;13.32;4.72;;;;;;;3.68;64.59;99419.19;5070106;28;20391;-77
2022/04/18 05:12:39;;;;;;;6.85;4.50;;;;;;;3.64;64.43;99408.00;5054832;28;20040;-78
2022/04/18 05:15:08;;;;;;;10.75;4.57;;;;;;;3.75;64.09;99413.31;5054941;28;20040;-77
2022/04/18 05:17:53;;;;;;;7.85;3.60;;;;;;;3.82;64.50;99402.34;5048801;28;20052;-76
2022/04/18 05:20:20;;;;;;;8.18;4.60;;;;;;;3.87;63.58;99410.13;5054442;28;20078;-78
2022/04/18 05:22:45;;;;;;;11.85;4.22;;;;;;;3.96;64.10;99400.03;5054546;28;20040;-77
2022/04/18 05:25:15;;;;;;;6.75;4.40;;;;;;;4.02;63.64;99415.53;5055159;28;20044;-77
2022/04/18 05:27:44;;;;;;;7.15;4.10;;;;;;;4.20;63.34;99408.16;5071327;28;20044;-77
2022/04/18 05:30:38;;;;;;;6.47;3.92;;;;;;;4.23;62.35;99384.25;5058668;28;20557;-76
2022/04/18 05:33:04;;;;;;;9.75;3.60;;;;;;;4.34;62.25;99414.38;5071333;28;20467;-76
2022/04/18 05:35:35;;;;;;;7.63;4.05;;;;;;;4.34;62.20;99403.25;5055862;28;20048;-78
2022/04/18 05:38:01;;;;;;;9.20;3.55;;;;;;;4.30;62.29;99391.22;5071839;28;20036;-78
2022/04/18 05:40:37;;;;;;;8.38;4.10;;;;;;;4.26;61.86;99379.16;5058601;28;20040;-77
2022/04/18 05:43:04;;;;;;;8.02;3.60;;;;;;;4.40;62.15;99387.97;5040672;28;20090;-76
2022/04/18 05:45:32;;;;;;;6.53;3.22;;;;;;;4.61;62.25;99396.84;5037978;28;20032;-78
2022/04/18 05:48:05;;;;;;;11.52;4.38;;;;;;;4.72;61.64;99395.28;5065584;28;20503;-77
2022/04/18 05:50:36;;;;;;;7.88;3.53;;;;;;;4.76;60.89;99386.78;5046472;28;20040;-77
2022/04/18 05:53:17;;;;;;;6.75;3.85;;;;;;;4.76;60.92;99397.94;5041581;28;20036;-75
2022/04/18 05:56:03;;;;;;;5.88;3.20;;;;;;;4.79;61.32;99391.97;5069953;28;20052;-79
2022/04/18 05:58:45;;;;;;;6.65;3.30;;;;;;;4.94;60.63;99397.34;5056184;28;20044;-76
2022/04/18 06:01:30;;;;;;;7.55;3.42;;;;;;;4.96;60.13;99390.53;5070682;28;20411;-78
2022/04/18 06:04:00;;;;;;;7.50;3.85;;;;;;;5.17;60.53;99395.06;5038650;28;20074;-77
2022/04/18 06:06:26;;;;;;;9.73;3.30;;;;;;;5.28;59.73;99397.81;5071182;28;20090;-77
2022/04/18 06:08:53;;;;;;;15.57;3.83;;;;;;;5.29;59.93;99394.38;5070907;28;20518;-77
2022/04/18 06:11:25;;;;;;;9.35;3.65;;;;;;;5.37;59.31;99386.78;5038862;28;20032;-77
2022/04/18 06:13:57;;;;;;;11.13;3.30;;;;;;;5.42;58.97;99404.00;5072188;28;20036;-77
2022/04/18 06:16:24;;;;;;;7.55;3.30;;;;;;;5.43;59.55;99397.13;5040122;28;20041;-77
2022/04/18 06:18:50;;;;;;;8.73;3.80;;;;;;;5.50;59.23;99402.38;5064195;28;20028;-75
2022/04/18 06:21:16;;;;;;;9.27;3.78;;;;;;;5.57;59.15;99400.72;5070233;28;20075;-77
2022/04/18 06:23:43;;;;;;;6.60;3.70;;;;;;;5.57;58.98;99381.00;5070685;28;20043;-77
2022/04/18 06:26:45;;;;;;;5.95;3.35;;;;;;;5.74;58.93;99404.38;5049698;28;20044;-78
2022/04/18 06:29:12;;;;;;;7.65;3.67;;;;;;;5.82;58.33;99399.31;5040357;28;20044;-77
2022/04/18 06:31:46;;;;;;;9.23;3.47;;;;;;;5.89;57.53;99403.66;5058608;28;20121;-77
2022/04/18 06:34:12;;;;;;;11.45;3.75;;;;;;;5.90;57.90;99400.22;5074577;28;20186;-77
2022/04/18 06:36:39;;;;;;;7.75;3.47;;;;;;;5.93;57.24;99396.88;5075743;28;20032;-77
2022/04/18 06:39:41;;;;;;;7.18;3.38;;;;;;;5.81;57.67;99379.53;5021656;28;20048;-79
2022/04/18 06:42:13;;;;;;;9.13;3.40;;;;;;;5.83;57.72;99408.75;5036643;28;20059;-78
2022/04/18 06:44:47;;;;;;;5.00;3.50;;;;;;;5.88;57.84;99414.81;5073983;28;20037;-78
2022/04/18 06:47:14;;;;;;;8.75;4.18;;;;;;;5.84;57.53;99389.88;5073890;28;20052;-77
2022/04/18 06:49:59;;;;;;;7.65;3.45;;;;;;;6.06;57.15;99412.47;5047767;28;20036;-76
2022/04/18 06:52:51;;;;;;;8.63;3.60;;;;;;;5.91;56.98;99378.81;5059117;28;20082;-78
2022/04/18 06:58:31;;;;;;;5.95;2.80;;;;;;;6.22;56.91;99412.59;5061810;28;20046;-77
2022/04/18 07:00:58;;;;;;;8.43;3.28;;;;;;;6.20;56.33;99398.84;5041780;28;20052;-77
2022/04/18 07:03:23;;;;;;;6.55;2.97;;;;;;;6.32;56.18;99409.25;5057160;28;20409;-77
2022/04/18 07:05:49;;;;;;;10.18;3.30;;;;;;;6.27;55.79;99395.47;5075511;28;20048;-80
2022/04/18 07:08:15;;;;;;;7.70;3.22;;;;;;;6.34;55.28;99395.53;5074728;28;20068;-78
2022/04/18 07:10:42;;;;;;;;;;;;;;;6.50;55.41;99411.97;5041403;28;20063;-78
2022/04/18 07:13:07;;;;;;;7.53;3.05;;;;;;;6.43;55.55;99402.50;5073664;28;19920;-77
2022/04/18 07:15:35;;;;;;;7.18;3.05;;;;;;;6.54;55.94;99406.00;5066707;28;20404;-80
2022/04/18 07:18:03;;;;;;;8.00;2.75;;;;;;;6.62;54.57;99418.97;5063466;28;20028;-77
2022/04/18 07:20:29;;;;;;;6.20;2.30;;;;;;;6.66;55.06;99409.56;5073609;28;20161;-77
2022/04/18 07:22:55;;;;;;;4.60;2.38;;;;;;;6.63;54.36;99405.22;5057201;28;20092;-78
2022/04/18 07:25:24;;;;;;;4.97;2.30;;;;;;;6.59;54.66;99414.63;5057101;28;20490;-79
2022/04/18 07:28:09;;;;;;;6.18;2.40;;;;;;;6.55;54.04;99402.59;5041618;28;20403;-79
2022/04/18 07:30:36;;;;;;;13.80;4.70;;;;;;;6.69;54.38;99413.03;5034320;28;20032;-77
2022/04/18 07:33:02;;;;;;;7.78;2.85;;;;;;;6.63;54.17;99405.22;5056774;28;20486;-77
2022/04/18 07:35:27;;;;;;;3.83;2.53;;;;;;;6.66;54.41;99409.56;5057392;28;20094;-80
2022/04/18 07:40:54;;;;;;;8.32;3.15;;;;;;;6.69;54.90;99409.56;5058933;28;20453;-77
2022/04/18 07:43:23;;;;;;;7.38;2.42;;;;;;;6.68;53.75;99398.38;5057106;28;20487;-78
2022/04/18 07:45:49;;;;;;;4.30;2.28;;;;;;;6.65;53.50;99387.22;5073489;28;20043;-81
2022/04/18 07:48:15;;;;;;;8.18;4.75;;;;;;;6.80;54.47;99403.63;5023587;28;20040;-77
2022/04/18 07:53:32;;;;;;;4.78;2.80;;;;;;;6.87;53.43;99405.41;5059910;28;20064;-80
2022/04/18 07:55:58;;;;;;;6.05;2.63;;;;;;;6.92;54.29;99413.19;5040609;28;20072;-77
2022/04/18 07:58:25;;;;;;;4.75;2.30;;;;;;;6.75;53.68;99382.13;5057166;28;20040;-78
2022/04/18 08:00:52;;;;;;;8.85;2.53;;;;;;;6.81;53.61;99409.66;5040283;28;20043;-79
2022/04/18 08:03:18;;;;;;;6.47;2.47;;;;;;;6.95;53.77;99405.44;5055398;28;20036;-78
2022/04/18 08:05:50;;;;;;;11.80;2.83;;;;;;;6.88;53.84;99395.97;5057897;28;20145;-77
2022/04/18 08:08:21;;;;;;;5.65;2.63;;;;;;;6.93;54.09;99398.56;5042173;28;20078;-77
2022/04/18 08:10:47;;;;;;;4.13;2.65;;;;;;;6.96;53.93;99401.16;5040429;28;20032;-78
2022/04/18 08:13:13;;;;;;;6.75;2.90;;;;;;;7.01;53.61;99408.09;5072926;28;20036;-79
2022/04/18 08:15:38;;;;;;;6.97;2.97;;;;;;;7.08;53.62;99404.66;5050357;28;20087;-76
2022/04/18 08:18:16;;;;;;;6.82;2.80;;;;;;;7.16;53.82;99401.28;5027054;28;20490;-79
2022/04/18 08:20:53;;;;;;;5.03;2.47;;;;;;;7.28;53.78;99407.34;5073081;28;20083;-79
2022/04/18 08:23:20;;;;;;;7.07;2.45;;;;;;;7.32;53.04;99410.81;5073602;28;20178;-78
2022/04/18 08:26:04;;;;;;;9.30;2.65;;;;;;;7.38;53.44;99403.13;5060382;28;20051;-78
2022/04/18 08:28:46;;;;;;;6.13;2.50;;;;;;;7.46;52.90;99396.25;5030626;28;20040;-80
2022/04/18 08:31:12;;;;;;;5.10;2.60;;;;;;;7.40;52.45;99380.75;5056177;28;20090;-81
2022/04/18 08:34:07;;;;;;;5.82;2.40;;;;;;;7.51;52.44;99394.53;5053279;28;20123;-78
2022/04/18 08:36:33;;;;;;;5.07;2.63;;;;;;;7.53;52.91;99382.53;5040031;28;20106;-79
2022/04/18 08:39:01;;;;;;;5.53;2.58;;;;;;;7.60;52.17;99383.38;5044652;28;20035;-77
2022/04/18 08:41:45;;;;;;;9.65;2.85;;;;;;;7.73;52.49;99386.88;5071872;28;20550;-78
2022/04/18 08:44:22;;;;;;;6.28;2.88;;;;;;;7.83;52.12;99370.53;5056677;28;20520;-77
2022/04/18 08:46:50;;;;;;;8.05;3.58;;;;;;;7.97;51.69;99393.81;5055410;28;20040;-78
2022/04/18 08:52:43;;;;;;;8.23;2.97;;;;;;;7.95;51.65;99390.38;5072151;28;20529;-80
2022/04/18 08:55:04;;;;;;;7.03;2.30;;;;;;;7.84;51.89;99360.25;5072079;28;20044;-78
2022/04/18 08:57:31;;;;;;;5.47;2.20;;;;;;;7.93;51.59;99364.56;5039328;28;20055;-80
2022/04/18 08:59:58;;;;;;;4.20;2.50;;;;;;;8.11;51.62;99382.69;5039471;28;20081;-78
2022/04/18 09:02:27;;;;;;;3.50;2.30;;;;;;;8.01;51.37;99354.22;5056213;28;20040;-80
2022/04/18 09:05:13;;;;;;;6.70;2.80;;;;;;;8.37;51.32;99384.44;5038260;28;20517;-79
2022/04/18 09:07:42;;;;;;;;;;;;;;;8.59;50.77;99387.88;5047298;28;20056;-78
2022/04/18 09:10:08;;;;;;;5.10;3.03;;;;;;;8.88;50.36;99380.09;5051097;28;19916;-78
2022/04/18 09:12:37;;;;;;;8.73;2.92;;;;;;;9.07;49.44;99380.91;5066159;28;20510;-79
2022/04/18 09:15:41;;;;;;;8.93;2.33;;;;;;;9.23;48.87;99384.31;5042704;28;20124;-80
2022/04/18 09:18:15;;;;;;;3.72;2.33;;;;;;;9.40;48.95;99390.31;5037059;28;20048;-78
2022/04/18 09:20:51;;;;;;;3.97;2.40;;;;;;;9.67;48.74;99387.59;5072046;28;20051;-80
2022/04/18 09:23:26;;;;;;;7.50;2.33;;;;;;;9.71;47.12;99356.50;5038678;28;20056;-78
2022/04/18 09:25:56;;;;;;;7.45;2.50;;;;;;;9.86;47.44;99366.78;5040671;28;20081;-77
2022/04/18 09:28:23;;;;;;;5.03;3.78;;;;;;;10.05;46.44;99363.19;5044905;28;20076;-78
2022/04/18 09:30:58;;;;;;;6.93;3.03;;;;;;;10.11;46.06;99373.50;5036050;28;20028;-78
2022/04/18 09:33:30;;;;;;;9.73;5.47;;;;;;;10.33;46.07;99374.25;5055566;28;20036;-78
2022/04/18 09:36:06;;;;;;;6.10;2.75;;;;;;;10.35;45.57;99379.41;5072771;28;20048;-78
2022/04/18 09:38:35;;;;;;;3.50;2.20;;;;;;;10.38;45.44;99375.06;5056056;28;20415;-78
2022/04/18 09:41:31;;;;;;;4.78;2.20;;;;;;;10.26;45.43;99366.53;5073767;28;20056;-78
2022/04/18 09:44:05;;;;;;;5.60;1.85;;;;;;;10.22;45.74;99378.66;5057136;28;20040;-79
2022/04/18 09:46:37;;;;;;;5.28;2.42;;;;;;;10.12;46.05;99359.69;5056835;28;20051;-78
2022/04/18 09:49:11;;;;;;;2.95;2.08;;;;;;;10.25;46.10;99368.25;5042387;28;20041;-78
2022/04/18 09:51:45;;;;;;;4.63;2.10;;;;;;;10.30;45.76;99369.09;5056497;28;20152;-78
2022/04/18 09:54:16;;;;;;;4.75;2.70;;;;;;;10.36;45.34;99378.56;5040241;28;20086;-79
2022/04/18 09:56:52;;;;;;;4.65;2.40;;;;;;;10.23;46.12;99346.66;5047082;28;20141;-78
2022/04/18 09:59:21;;;;;;;11.05;2.67;;;;;;;10.46;46.27;99366.38;5030084;28;20399;-77
2022/04/18 10:01:46;;;;;;;4.63;1.83;;;;;;;10.27;45.71;99339.75;5071717;28;20028;-80
2022/04/18 10:04:12;;;;;;;;;;;;;;;10.35;46.26;99376.81;5041726;28;20556;-76
2022/04/18 10:06:40;;;;;;;8.95;2.33;;;;;;;10.24;46.37;99360.47;5058440;28;20379;-79
2022/04/18 10:09:06;;;;;;;5.93;3.60;;;;;;;10.12;46.71;99346.72;5075151;28;20122;-77
2022/04/18 10:11:32;;;;;;;;;;;;;;;10.37;46.79;99367.31;5075578;28;20040;-78
2022/04/18 10:13:58;;;;;;;3.25;2.20;;;;;;;10.47;46.42;99361.19;5076951;28;19967;-78
2022/04/18 10:16:23;;;;;;;;;;;;;;;10.66;45.98;99364.47;5045226;28;20500;-77
2022/04/18 10:18:57;;;;;;;5.03;2.22;;;;;;;10.56;45.37;99329.97;5053184;28;20008;-78
2022/04/18 10:21:30;;;;;;;3.03;1.90;;;;;;;10.64;45.36;99351.53;5058376;28;20434;-77
2022/04/18 10:24:24;;;;;;;6.50;2.20;;;;;;;10.83;45.82;99353.94;5058195;28;20037;-78
2022/04/18 10:26:58;;;;;;;6.25;1.70;;;;;;;10.99;45.38;99363.25;5059116;28;20411;-79
2022/04/18 10:29:32;;;;;;;5.22;2.00;;;;;;;10.94;44.95;99352.06;5074739;28;20040;-78
2022/04/18 10:32:03;;;;;;;4.18;2.30;;;;;;;10.99;44.71;99339.91;5075091;28;20044;-77
2022/04/18 10:34:31;;;;;;;16.73;3.50;;;;;;;10.96;44.34;99326.13;5043225;28;20075;-80
2022/04/18 10:36:59;;;;;;;3.28;2.10;;;;;;;11.11;44.12;99323.34;5064278;28;20124;-78
2022/04/18 10:39:32;;;;;;;3.47;1.98;;;;;;;11.12;43.98;99341.50;5073213;28;20050;-80
2022/04/18 10:41:59;;;;;;;6.93;2.78;;;;;;;11.29;44.61;99345.66;5059231;28;20055;-78
2022/04/18 10:44:32;;;;;;;5.90;1.88;;;;;;;11.33;43.57;99352.53;5058692;28;20503;-80
2022/04/18 10:46:58;;;;;;;3.35;1.80;;;;;;;11.47;43.91;99350.63;5064690;28;20051;-77
2022/04/18 10:49:24;;;;;;;;;;;;;;;11.57;43.52;99339.22;5074631;28;20402;-81
2022/04/18 10:51:54;;;;;;;3.95;1.85;;;;;;;11.45;43.68;99327.25;5059500;28;20380;-79
2022/04/18 10:54:25;;;;;;;5.45;1.83;;;;;;;11.58;43.81;99345.25;5059752;28;20127;-78
2022/04/18 10:56:57;;;;;;;5.22;2.33;;;;;;;11.77;43.21;99343.28;5058160;28;20044;-78
2022/04/18 10:59:27;;;;;;;5.57;2.15;;;;;;;12.07;43.21;99327.28;5074320;28;20040;-78
2022/04/18 11:01:54;;;;;;;5.68;2.35;;;;;;;12.19;42.48;99298.47;5041579;28;20041;-77
2022/04/18 11:04:25;;;;;;;6.30;2.40;;;;;;;12.64;41.71;99334.13;5034551;28;20036;-79
2022/04/18 11:06:52;;;;;;;9.10;2.47;;;;;;;12.78;41.73;99310.44;5058122;28;20109;-77
2022/04/18 11:09:19;;;;;;;5.45;2.25;;;;;;;13.06;41.44;99323.81;5034898;28;20074;-77
2022/04/18 11:11:54;;;;;;;4.97;1.95;;;;;;;13.26;40.33;99326.06;5049645;28;20087;-77
2022/04/18 11:14:28;;;;;;;5.72;2.45;;;;;;;13.06;40.38;99298.63;5039410;28;20545;-79
2022/04/18 11:16:59;;;;;;;6.72;2.67;;;;;;;13.09;40.62;99301.16;5035169;28;20041;-79
2022/04/18 11:19:31;;;;;;;6.03;2.50;;;;;;;13.37;39.81;99305.84;5041525;28;20040;-80
2022/04/18 11:22:01;;;;;;;5.80;2.20;;;;;;;13.60;39.76;99320.97;5057940;28;20511;-79
2022/04/18 11:24:48;;;;;;;5.95;2.50;;;;;;;13.53;39.75;99309.00;5049652;28;20067;-80
2022/04/18 11:27:18;;;;;;;4.30;2.40;;;;;;;13.53;39.69;99299.41;5058362;28;20513;-78
2022/04/18 11:29:50;;;;;;;3.55;2.00;;;;;;;13.61;38.80;99284.47;5014032;28;20060;-82
2022/04/18 11:32:17;;;;;;;4.78;2.03;;;;;;;13.76;39.16;99300.66;5057266;28;20040;-81
2022/04/18 11:34:49;;;;;;;5.00;2.17;;;;;;;13.75;39.06;99309.38;5028870;28;20461;-81
2022/04/18 11:37:29;;;;;;;5.60;1.98;;;;;;;13.31;39.81;99272.97;5058652;28;20044;-83
2022/04/18 11:39:56;;;;;;;2.88;1.90;;;;;;;13.27;39.97;99297.34;5075580;28;20052;-80
2022/04/18 11:42:24;;;;;;;5.55;2.22;;;;;;;13.04;40.59;99286.53;5076955;28;20040;-83
2022/04/18 11:44:51;;;;;;;7.10;2.30;;;;;;;13.07;40.74;99281.25;5028794;28;20055;-82
2022/04/18 11:47:22;;;;;;;7.30;2.28;;;;;;;13.16;39.86;99255.88;5075818;28;20059;-77
2022/04/18 11:49:50;;;;;;;3.17;1.90;;;;;;;13.56;39.84;99299.38;5059741;28;20487;-78
2022/04/18 11:52:19;;;;;;;6.35;2.20;;;;;;;13.52;40.04;99307.28;5065197;28;20561;-77
2022/04/18 11:55:07;;;;;;;5.78;2.72;;;;;;;13.56;40.49;99304.56;5036368;28;20132;-82
2022/04/18 11:57:36;;;;;;;3.78;2.30;;;;;;;13.67;40.09;99306.94;5075237;28;20519;-77
2022/04/18 12:00:09;;;;;;;5.45;2.00;;;;;;;13.75;39.77;99294.59;5056563;28;20032;-78
2022/04/18 12:08:10;;;;;;;8.27;2.10;;;;;;;13.30;40.75;99283.44;5068218;28;20094;-78
2022/04/18 12:10:37;;;;;;;4.15;2.10;;;;;;;13.11;40.89;99280.31;5073669;28;20032;-78
2022/04/18 12:13:07;;;;;;;5.55;2.40;;;;;;;12.89;41.08;99278.13;5056404;28;20564;-77
2022/04/18 12:15:33;;;;;;;6.82;2.30;;;;;;;12.80;41.88;99254.03;5036743;28;20033;-83
2022/04/18 12:18:10;;;;;;;3.50;2.53;;;;;;;12.69;41.38;99251.63;5030368;28;20043;-84
2022/04/18 12:20:40;;;;;;;10.07;4.95;;;;;;;12.49;42.26;99252.00;5058338;28;20098;-79
2022/04/18 12:23:06;;;;;;;7.22;2.20;;;;;;;12.53;42.27;99256.25;5056759;28;20089;-79
2022/04/18 12:25:31;;;;;;;;;;;;;;;12.69;42.59;99277.63;5073611;28;20124;-80